createdAt,value
2019-02-07T00:04:04.267Z,-7.90
2019-02-07T00:09:06.987Z,-8.00
2019-02-07T00:14:08.316Z,-8.70
2019-02-07T00:19:09.604Z,-8.40
2019-02-07T00:24:10.936Z,-8.80
2019-02-07T00:29:12.248Z,-8.30
2019-02-07T00:34:13.556Z,-8.40
2019-02-07T00:39:14.887Z,-8.70
2019-02-07T00:44:16.214Z,-8.60
2019-02-07T00:49:17.581Z,-8.50
2019-02-07T00:54:18.879Z,-8.50
2019-02-07T00:59:20.178Z,-8.60
2019-02-07T01:04:21.489Z,-9.10
2019-02-07T01:09:23.082Z,-8.70
2019-02-07T01:14:24.375Z,-8.00
2019-02-07T01:19:25.690Z,-8.10
2019-02-07T01:24:27.040Z,-8.00
2019-02-07T01:29:28.422Z,-8.10
2019-02-07T01:34:29.737Z,-8.40
2019-02-07T01:39:31.050Z,-8.30
2019-02-07T01:44:32.372Z,-8.00
2019-02-07T01:49:33.706Z,-8.80
2019-02-07T01:54:35.014Z,-9.00
2019-02-07T01:59:36.335Z,-8.90
2019-02-07T02:04:38.017Z,-8.90
2019-02-07T02:09:39.323Z,-8.80
2019-02-07T02:14:40.622Z,-8.50
2019-02-07T02:19:41.946Z,-8.40
2019-02-07T02:24:45.212Z,-8.40
2019-02-07T02:29:46.397Z,-8.30
2019-02-07T02:34:47.693Z,-8.20
2019-02-07T02:39:49.071Z,-8.50
2019-02-07T02:44:50.578Z,-8.60
2019-02-07T02:49:51.935Z,-8.50
2019-02-07T02:54:53.340Z,-8.60
2019-02-07T02:59:54.687Z,-8.80
2019-02-07T03:05:03.795Z,-8.30
2019-02-07T03:10:16.588Z,-8.60
2019-02-07T03:15:31.947Z,-8.50
2019-02-07T03:20:51.485Z,-8.60
2019-02-07T03:26:00.506Z,-8.70
2019-02-07T03:31:06.548Z,-8.50
2019-02-07T03:36:12.492Z,-8.80
2019-02-07T03:41:15.698Z,-8.60
2019-02-07T03:46:33.915Z,-8.90
2019-02-07T03:51:40.210Z,-8.50
2019-02-07T03:56:46.152Z,-8.30
2019-02-07T04:01:52.144Z,-8.20
2019-02-07T04:06:55.368Z,-8.40
2019-02-07T04:12:13.480Z,-8.40
2019-02-07T04:17:16.745Z,-8.40
2019-02-07T04:22:32.244Z,-8.40
2019-02-07T04:27:51.922Z,-8.50
2019-02-07T04:33:11.515Z,-8.60
2019-02-07T04:38:29.669Z,-8.60
2019-02-07T04:43:48.178Z,-8.30
2019-02-07T04:48:51.405Z,-8.30
2019-02-07T04:54:11.328Z,-8.40
2019-02-07T04:59:14.532Z,-8.60
2019-02-07T05:04:17.835Z,-8.30
2019-02-07T05:09:37.746Z,-8.30
2019-02-07T05:14:52.867Z,-8.10
2019-02-07T05:20:02.138Z,-6.90
2019-02-07T05:25:23.935Z,-7.10
2019-02-07T05:30:36.044Z,-6.90
2019-02-07T05:35:48.098Z,-7.00
2019-02-07T05:41:07.691Z,-7.10
2019-02-07T05:46:11.296Z,-7.60
2019-02-07T05:51:14.524Z,-6.40
2019-02-07T05:56:23.647Z,-7.20
2019-02-07T06:01:42.079Z,-7.20
2019-02-07T06:07:02.114Z,-7.70
2019-02-07T06:12:23.302Z,-7.30
2019-02-07T06:17:29.423Z,-7.10
2019-02-07T06:22:32.595Z,-7.30
2019-02-07T06:27:41.994Z,-7.50
2019-02-07T06:32:57.275Z,-8.10
2019-02-07T06:38:09.349Z,-7.70
2019-02-07T06:43:12.551Z,-7.90
2019-02-07T06:48:18.939Z,-7.60
2019-02-07T06:53:38.747Z,-7.30
2019-02-07T06:58:50.700Z,-6.90
2019-02-07T07:03:53.920Z,-6.60
2019-02-07T07:09:06.376Z,-6.20
2019-02-07T07:14:12.320Z,-6.00
2019-02-07T07:19:15.518Z,-6.10
2019-02-07T07:24:27.833Z,-5.50
2019-02-07T07:29:47.442Z,-5.30
2019-02-07T07:34:56.411Z,-2.70
2019-02-07T07:40:02.720Z,-3.90
2019-02-07T07:45:09.726Z,-4.10
2019-02-07T07:50:15.944Z,-4.00
2019-02-07T07:55:25.128Z,-2.90
2019-02-07T08:00:37.397Z,-0.30
2019-02-07T08:05:58.885Z,-1.90
2019-02-07T08:11:02.107Z,-1.80
2019-02-07T08:16:21.779Z,-1.30
2019-02-07T08:21:41.508Z,-1.30
2019-02-07T08:26:50.481Z,-0.50
2019-02-07T08:31:56.401Z,0.00
2019-02-07T08:37:16.224Z,0.70
2019-02-07T08:42:22.163Z,0.20
2019-02-07T08:47:40.677Z,1.10
2019-02-07T08:52:49.592Z,2.40
2019-02-07T08:57:58.945Z,3.40
2019-02-07T09:03:08.290Z,3.90
2019-02-07T09:08:28.212Z,4.40
2019-02-07T09:13:49.400Z,4.60
2019-02-07T09:18:52.617Z,3.80
2019-02-07T09:23:55.845Z,5.00
2019-02-07T09:29:10.895Z,3.80
2019-02-07T09:34:14.125Z,3.70
2019-02-07T09:39:26.428Z,3.50
2019-02-07T09:44:38.687Z,4.40
2019-02-07T10:19:38.803Z,3.90
2019-02-07T10:49:59.935Z,3.80
2019-02-07T11:20:15.135Z,6.00
2019-02-07T11:50:27.143Z,4.60
2019-02-07T12:20:33.348Z,4.30
2019-02-07T12:50:54.766Z,3.70
2019-02-07T13:21:13.124Z,4.90
2019-02-07T13:51:32.692Z,4.50
2019-02-07T14:21:35.948Z,6.00
2019-02-07T14:51:37.260Z,4.70
2019-02-07T15:21:38.734Z,3.50
2019-02-07T15:51:40.262Z,2.90
2019-02-07T16:21:41.707Z,2.50
2019-02-07T16:51:43.124Z,2.50
2019-02-07T17:21:44.430Z,1.90
2019-02-07T17:51:45.875Z,2.00
2019-02-07T18:21:47.399Z,1.90
2019-02-07T18:51:48.756Z,2.00
2019-02-07T19:21:56.833Z,2.20
2019-02-07T19:51:53.304Z,2.00
2019-02-07T20:21:54.679Z,1.80
2019-02-07T20:51:56.003Z,1.80
2019-02-07T21:21:57.379Z,2.00
2019-02-07T21:51:58.909Z,1.50
2019-02-07T22:22:00.315Z,1.40
2019-02-07T22:52:01.665Z,1.20
2019-02-07T23:22:03.475Z,1.40
2019-02-07T23:52:05.221Z,1.40
